sensor_id;sensor_type;location;lat;lon;timestamp;temperature;humidity
21207;DHT22;10761;48.532;8.026;2023-04-01T00:02:19;9.50;1.00
21207;DHT22;10761;48.532;8.026;2023-04-01T00:04:45;9.50;99.90
21207;DHT22;10761;48.532;8.026;2023-04-01T00:07:10;9.50;99.90
21207;DHT22;10761;48.532;8.026;2023-04-01T00:09:36;9.50;99.90
21207;DHT22;10761;48.532;8.026;2023-04-01T00:12:02;9.50;80.00
21207;DHT22;10761;48.532;8.026;2023-04-01T00:14:28;9.50;1.00
21207;DHT22;10761;48.532;8.026;2023-04-01T00:16:54;9.50;1.00
21207;DHT22;10761;48.532;8.026;2023-04-01T00:19:20;9.50;71.40
21207;DHT22;10761;48.532;8.026;2023-04-01T00:21:46;9.50;1.00
21207;DHT22;10761;48.532;8.026;2023-04-01T00:24:11;9.50;1.00
21207;DHT22;10761;48.532;8.026;2023-04-01T00:26:37;9.50;1.00
21207;DHT22;10761;48.532;8.026;2023-04-01T00:29:03;9.50;1.00
21207;DHT22;10761;48.532;8.026;2023-04-01T00:31:28;9.50;99.90
21207;DHT22;10761;48.532;8.026;2023-04-01T00:33:55;9.50;99.90
21207;DHT22;10761;48.532;8.026;2023-04-01T00:36:21;9.50;1.00
21207;DHT22;10761;48.532;8.026;2023-04-01T00:38:49;9.50;1.00
21207;DHT22;10761;48.532;8.026;2023-04-01T00:41:15;9.50;1.00
21207;DHT22;10761;48.532;8.026;2023-04-01T00:43:43;9.50;99.90
21207;DHT22;10761;48.532;8.026;2023-04-01T00:46:09;9.40;1.00
21207;DHT22;10761;48.532;8.026;2023-04-01T00:48:38;9.40;99.90
21207;DHT22;10761;48.532;8.026;2023-04-01T00:51:07;9.30;1.00
21207;DHT22;10761;48.532;8.026;2023-04-01T00:53:35;9.30;1.00
21207;DHT22;10761;48.532;8.026;2023-04-01T00:56:18;9.40;99.90
21207;DHT22;10761;48.532;8.026;2023-04-01T00:58:48;9.40;96.50
21207;DHT22;10761;48.532;8.026;2023-04-01T01:01:15;9.50;1.00
21207;DHT22;10761;48.532;8.026;2023-04-01T01:03:41;9.50;99.90
21207;DHT22;10761;48.532;8.026;2023-04-01T01:06:20;9.50;99.90
21207;DHT22;10761;48.532;8.026;2023-04-01T01:08:55;9.40;46.30
21207;DHT22;10761;48.532;8.026;2023-04-01T01:16:53;9.40;99.90
21207;DHT22;10761;48.532;8.026;2023-04-01T01:19:57;9.40;1.00
21207;DHT22;10761;48.532;8.026;2023-04-01T01:25:20;9.40;1.00
21207;DHT22;10761;48.532;8.026;2023-04-01T01:28:17;9.40;99.90
21207;DHT22;10761;48.532;8.026;2023-04-01T01:33:52;9.40;1.00
21207;DHT22;10761;48.532;8.026;2023-04-01T01:36:23;9.30;99.90
21207;DHT22;10761;48.532;8.026;2023-04-01T01:38:51;9.30;1.00
21207;DHT22;10761;48.532;8.026;2023-04-01T01:41:18;9.20;99.90
21207;DHT22;10761;48.532;8.026;2023-04-01T01:43:48;9.20;1.00
21207;DHT22;10761;48.532;8.026;2023-04-01T01:46:19;9.20;1.00
21207;DHT22;10761;48.532;8.026;2023-04-01T01:48:47;9.10;1.00
21207;DHT22;10761;48.532;8.026;2023-04-01T01:51:12;9.10;91.30
21207;DHT22;10761;48.532;8.026;2023-04-01T01:53:38;9.10;99.90
21207;DHT22;10761;48.532;8.026;2023-04-01T01:56:04;9.10;7.80
21207;DHT22;10761;48.532;8.026;2023-04-01T01:58:36;9.10;99.90
21207;DHT22;10761;48.532;8.026;2023-04-01T02:01:09;9.10;99.90
21207;DHT22;10761;48.532;8.026;2023-04-01T02:03:38;9.00;1.00
21207;DHT22;10761;48.532;8.026;2023-04-01T02:06:07;9.00;99.90
21207;DHT22;10761;48.532;8.026;2023-04-01T02:08:45;9.00;1.00
21207;DHT22;10761;48.532;8.026;2023-04-01T02:11:15;9.00;99.90
21207;DHT22;10761;48.532;8.026;2023-04-01T02:13:52;9.00;99.90
21207;DHT22;10761;48.532;8.026;2023-04-01T02:16:27;9.00;90.60
21207;DHT22;10761;48.532;8.026;2023-04-01T02:18:56;9.00;1.00
21207;DHT22;10761;48.532;8.026;2023-04-01T02:21:24;9.00;1.00
21207;DHT22;10761;48.532;8.026;2023-04-01T02:23:53;9.10;1.00
21207;DHT22;10761;48.532;8.026;2023-04-01T02:26:20;9.10;99.90
21207;DHT22;10761;48.532;8.026;2023-04-01T02:28:46;9.10;1.00
21207;DHT22;10761;48.532;8.026;2023-04-01T02:31:14;9.20;1.00
21207;DHT22;10761;48.532;8.026;2023-04-01T02:33:40;9.20;99.90
21207;DHT22;10761;48.532;8.026;2023-04-01T02:36:11;9.20;99.90
21207;DHT22;10761;48.532;8.026;2023-04-01T02:38:37;9.20;1.00
21207;DHT22;10761;48.532;8.026;2023-04-01T02:41:04;9.20;1.00
21207;DHT22;10761;48.532;8.026;2023-04-01T02:43:32;9.20;1.00
21207;DHT22;10761;48.532;8.026;2023-04-01T02:45:58;9.20;1.00
21207;DHT22;10761;48.532;8.026;2023-04-01T02:48:23;9.20;99.90
21207;DHT22;10761;48.532;8.026;2023-04-01T02:50:49;9.20;20.10
21207;DHT22;10761;48.532;8.026;2023-04-01T02:53:15;9.20;1.00
21207;DHT22;10761;48.532;8.026;2023-04-01T02:55:41;9.30;1.00
21207;DHT22;10761;48.532;8.026;2023-04-01T02:58:07;9.30;1.00
21207;DHT22;10761;48.532;8.026;2023-04-01T03:00:32;9.30;71.90
21207;DHT22;10761;48.532;8.026;2023-04-01T03:02:58;9.40;1.00
21207;DHT22;10761;48.532;8.026;2023-04-01T03:05:24;9.40;1.00
21207;DHT22;10761;48.532;8.026;2023-04-01T03:07:49;9.50;1.00
21207;DHT22;10761;48.532;8.026;2023-04-01T03:10:15;9.50;1.00
21207;DHT22;10761;48.532;8.026;2023-04-01T03:12:41;9.50;1.00
21207;DHT22;10761;48.532;8.026;2023-04-01T03:15:08;9.50;1.00
21207;DHT22;10761;48.532;8.026;2023-04-01T03:17:35;9.60;7.00
21207;DHT22;10761;48.532;8.026;2023-04-01T03:20:00;9.60;1.00
21207;DHT22;10761;48.532;8.026;2023-04-01T03:22:26;9.70;1.00
21207;DHT22;10761;48.532;8.026;2023-04-01T03:24:51;9.70;99.90
21207;DHT22;10761;48.532;8.026;2023-04-01T03:27:17;9.70;1.00
21207;DHT22;10761;48.532;8.026;2023-04-01T03:29:42;9.70;1.00
21207;DHT22;10761;48.532;8.026;2023-04-01T03:32:08;9.70;1.00
21207;DHT22;10761;48.532;8.026;2023-04-01T03:34:34;9.70;1.00
21207;DHT22;10761;48.532;8.026;2023-04-01T03:36:59;9.70;1.00
21207;DHT22;10761;48.532;8.026;2023-04-01T03:39:25;9.80;99.90
21207;DHT22;10761;48.532;8.026;2023-04-01T03:41:51;9.90;83.20
21207;DHT22;10761;48.532;8.026;2023-04-01T03:44:17;9.80;99.90
21207;DHT22;10761;48.532;8.026;2023-04-01T03:46:42;9.80;1.00
21207;DHT22;10761;48.532;8.026;2023-04-01T03:49:11;9.80;3.50
21207;DHT22;10761;48.532;8.026;2023-04-01T03:51:40;9.80;99.90
21207;DHT22;10761;48.532;8.026;2023-04-01T03:54:06;9.80;3.30
21207;DHT22;10761;48.532;8.026;2023-04-01T03:56:32;9.80;1.00
21207;DHT22;10761;48.532;8.026;2023-04-01T03:58:58;9.80;1.00
21207;DHT22;10761;48.532;8.026;2023-04-01T04:01:26;9.70;1.00
21207;DHT22;10761;48.532;8.026;2023-04-01T04:03:52;9.70;1.00
21207;DHT22;10761;48.532;8.026;2023-04-01T04:06:19;9.70;1.00
21207;DHT22;10761;48.532;8.026;2023-04-01T04:08:45;9.70;1.00
21207;DHT22;10761;48.532;8.026;2023-04-01T04:11:11;9.70;1.00
21207;DHT22;10761;48.532;8.026;2023-04-01T04:13:36;9.80;99.90
21207;DHT22;10761;48.532;8.026;2023-04-01T04:16:03;9.80;99.90
21207;DHT22;10761;48.532;8.026;2023-04-01T04:18:29;9.80;1.00
21207;DHT22;10761;48.532;8.026;2023-04-01T04:20:55;9.80;1.00
21207;DHT22;10761;48.532;8.026;2023-04-01T04:23:20;9.80;1.00
21207;DHT22;10761;48.532;8.026;2023-04-01T04:28:20;9.70;1.00
21207;DHT22;10761;48.532;8.026;2023-04-01T04:30:46;9.70;1.00
21207;DHT22;10761;48.532;8.026;2023-04-01T04:33:12;9.70;99.90
21207;DHT22;10761;48.532;8.026;2023-04-01T04:35:37;9.80;99.90
21207;DHT22;10761;48.532;8.026;2023-04-01T04:38:03;9.70;99.90
21207;DHT22;10761;48.532;8.026;2023-04-01T04:40:28;9.70;99.90
21207;DHT22;10761;48.532;8.026;2023-04-01T04:42:54;9.70;99.90
21207;DHT22;10761;48.532;8.026;2023-04-01T04:45:20;9.70;99.90
21207;DHT22;10761;48.532;8.026;2023-04-01T04:47:45;9.70;1.00
21207;DHT22;10761;48.532;8.026;2023-04-01T04:50:11;9.70;1.00
21207;DHT22;10761;48.532;8.026;2023-04-01T04:52:37;9.70;1.00
21207;DHT22;10761;48.532;8.026;2023-04-01T04:55:03;9.60;1.00
21207;DHT22;10761;48.532;8.026;2023-04-01T04:57:28;9.60;1.00
21207;DHT22;10761;48.532;8.026;2023-04-01T04:59:54;9.50;1.00
21207;DHT22;10761;48.532;8.026;2023-04-01T05:02:19;9.50;1.00
21207;DHT22;10761;48.532;8.026;2023-04-01T05:04:45;9.50;75.30
21207;DHT22;10761;48.532;8.026;2023-04-01T05:07:11;9.40;99.90
21207;DHT22;10761;48.532;8.026;2023-04-01T05:09:36;9.40;99.90
21207;DHT22;10761;48.532;8.026;2023-04-01T05:12:02;9.40;99.90
21207;DHT22;10761;48.532;8.026;2023-04-01T05:14:28;9.50;99.90
21207;DHT22;10761;48.532;8.026;2023-04-01T05:16:53;9.50;99.90
21207;DHT22;10761;48.532;8.026;2023-04-01T05:19:20;9.40;1.00
21207;DHT22;10761;48.532;8.026;2023-04-01T05:21:45;9.40;1.00
21207;DHT22;10761;48.532;8.026;2023-04-01T05:24:11;9.40;1.00
21207;DHT22;10761;48.532;8.026;2023-04-01T05:26:36;9.40;1.00
21207;DHT22;10761;48.532;8.026;2023-04-01T05:29:03;9.40;1.00
21207;DHT22;10761;48.532;8.026;2023-04-01T05:31:29;9.30;99.90
21207;DHT22;10761;48.532;8.026;2023-04-01T05:33:55;9.30;99.90
21207;DHT22;10761;48.532;8.026;2023-04-01T05:36:21;9.30;99.90
21207;DHT22;10761;48.532;8.026;2023-04-01T05:38:47;9.40;99.90
21207;DHT22;10761;48.532;8.026;2023-04-01T05:41:15;9.40;99.90
21207;DHT22;10761;48.532;8.026;2023-04-01T05:43:41;9.40;99.90
21207;DHT22;10761;48.532;8.026;2023-04-01T05:46:07;9.40;1.00
21207;DHT22;10761;48.532;8.026;2023-04-01T05:48:33;9.40;1.00
21207;DHT22;10761;48.532;8.026;2023-04-01T05:51:00;9.30;1.00
21207;DHT22;10761;48.532;8.026;2023-04-01T05:53:26;9.30;1.00
21207;DHT22;10761;48.532;8.026;2023-04-01T05:55:52;9.30;99.90
21207;DHT22;10761;48.532;8.026;2023-04-01T05:58:17;9.30;30.70
21207;DHT22;10761;48.532;8.026;2023-04-01T06:00:43;9.20;1.00
21207;DHT22;10761;48.532;8.026;2023-04-01T06:03:08;9.20;11.30
21207;DHT22;10761;48.532;8.026;2023-04-01T06:05:43;9.30;99.90
21207;DHT22;10761;48.532;8.026;2023-04-01T06:08:15;9.30;1.00
21207;DHT22;10761;48.532;8.026;2023-04-01T06:19:00;9.50;1.00
21207;DHT22;10761;48.532;8.026;2023-04-01T06:29:51;9.70;99.90
21207;DHT22;10761;48.532;8.026;2023-04-01T06:38:34;9.60;1.00
21207;DHT22;10761;48.532;8.026;2023-04-01T06:41:46;9.60;1.00
21207;DHT22;10761;48.532;8.026;2023-04-01T06:44:19;9.60;1.00
21207;DHT22;10761;48.532;8.026;2023-04-01T06:47:51;9.50;99.90
21207;DHT22;10761;48.532;8.026;2023-04-01T06:52:50;9.50;99.90
21207;DHT22;10761;48.532;8.026;2023-04-01T06:55:46;9.50;1.00
21207;DHT22;10761;48.532;8.026;2023-04-01T06:58:21;9.50;99.90
21207;DHT22;10761;48.532;8.026;2023-04-01T07:00:54;9.40;1.00
21207;DHT22;10761;48.532;8.026;2023-04-01T07:03:30;9.40;1.00
21207;DHT22;10761;48.532;8.026;2023-04-01T07:06:04;9.30;1.00
21207;DHT22;10761;48.532;8.026;2023-04-01T07:08:34;9.40;1.00
21207;DHT22;10761;48.532;8.026;2023-04-01T07:11:04;9.40;99.90
21207;DHT22;10761;48.532;8.026;2023-04-01T07:13:48;9.40;1.00
21207;DHT22;10761;48.532;8.026;2023-04-01T07:16:24;9.40;1.00
21207;DHT22;10761;48.532;8.026;2023-04-01T07:19:06;9.40;1.00
21207;DHT22;10761;48.532;8.026;2023-04-01T07:24:31;9.30;1.00
21207;DHT22;10761;48.532;8.026;2023-04-01T07:26:59;9.20;99.90
21207;DHT22;10761;48.532;8.026;2023-04-01T07:29:25;9.20;1.00
21207;DHT22;10761;48.532;8.026;2023-04-01T07:32:17;9.20;99.90
21207;DHT22;10761;48.532;8.026;2023-04-01T07:43:43;9.30;73.30
21207;DHT22;10761;48.532;8.026;2023-04-01T07:54:44;9.20;1.00
21207;DHT22;10761;48.532;8.026;2023-04-01T07:57:22;9.10;1.00
21207;DHT22;10761;48.532;8.026;2023-04-01T08:08:19;9.00;1.00
21207;DHT22;10761;48.532;8.026;2023-04-01T08:16:42;8.90;52.90
21207;DHT22;10761;48.532;8.026;2023-04-01T08:22:35;8.80;99.90
21207;DHT22;10761;48.532;8.026;2023-04-01T08:25:05;8.80;89.70
21207;DHT22;10761;48.532;8.026;2023-04-01T08:27:43;8.80;99.90
21207;DHT22;10761;48.532;8.026;2023-04-01T08:33:24;8.70;99.90
21207;DHT22;10761;48.532;8.026;2023-04-01T08:38:30;8.70;99.90
21207;DHT22;10761;48.532;8.026;2023-04-01T08:41:40;8.80;99.90
21207;DHT22;10761;48.532;8.026;2023-04-01T08:50:26;8.80;99.90
21207;DHT22;10761;48.532;8.026;2023-04-01T08:52:52;8.80;99.90
21207;DHT22;10761;48.532;8.026;2023-04-01T08:55:46;8.70;99.90
21207;DHT22;10761;48.532;8.026;2023-04-01T08:58:32;8.70;99.90
21207;DHT22;10761;48.532;8.026;2023-04-01T09:04:18;8.70;99.90
21207;DHT22;10761;48.532;8.026;2023-04-01T09:06:52;8.70;99.90
21207;DHT22;10761;48.532;8.026;2023-04-01T09:14:52;8.70;99.90
21207;DHT22;10761;48.532;8.026;2023-04-01T09:25:22;8.70;99.90
21207;DHT22;10761;48.532;8.026;2023-04-01T09:30:58;8.80;99.90
21207;DHT22;10761;48.532;8.026;2023-04-01T09:44:28;8.80;99.90
21207;DHT22;10761;48.532;8.026;2023-04-01T09:52:17;8.90;99.90
21207;DHT22;10761;48.532;8.026;2023-04-01T10:09:25;8.90;99.90
21207;DHT22;10761;48.532;8.026;2023-04-01T10:11:59;9.00;99.90
21207;DHT22;10761;48.532;8.026;2023-04-01T10:17:42;9.00;99.90
21207;DHT22;10761;48.532;8.026;2023-04-01T10:29:27;9.00;99.90
21207;DHT22;10761;48.532;8.026;2023-04-01T10:32:23;9.00;99.90
21207;DHT22;10761;48.532;8.026;2023-04-01T10:45:38;9.20;99.90
21207;DHT22;10761;48.532;8.026;2023-04-01T10:48:33;9.10;99.90
21207;DHT22;10761;48.532;8.026;2023-04-01T10:51:38;9.10;99.90
21207;DHT22;10761;48.532;8.026;2023-04-01T11:00:03;9.10;99.90
21207;DHT22;10761;48.532;8.026;2023-04-01T11:12:09;9.10;99.90
21207;DHT22;10761;48.532;8.026;2023-04-01T11:35:02;9.30;99.90
21207;DHT22;10761;48.532;8.026;2023-04-01T11:37:55;9.30;99.90
21207;DHT22;10761;48.532;8.026;2023-04-01T11:40:28;9.30;99.90
21207;DHT22;10761;48.532;8.026;2023-04-01T11:46:20;9.40;99.90
21207;DHT22;10761;48.532;8.026;2023-04-01T11:54:20;9.30;99.90
21207;DHT22;10761;48.532;8.026;2023-04-01T11:59:38;9.30;99.90
21207;DHT22;10761;48.532;8.026;2023-04-01T12:02:11;9.30;99.90
21207;DHT22;10761;48.532;8.026;2023-04-01T12:10:20;9.40;99.90
21207;DHT22;10761;48.532;8.026;2023-04-01T12:13:17;9.40;99.90
21207;DHT22;10761;48.532;8.026;2023-04-01T12:21:38;9.40;99.90
21207;DHT22;10761;48.532;8.026;2023-04-01T12:24:45;9.40;99.90
21207;DHT22;10761;48.532;8.026;2023-04-01T12:30:24;9.40;99.90
21207;DHT22;10761;48.532;8.026;2023-04-01T12:36:17;9.40;99.90
21207;DHT22;10761;48.532;8.026;2023-04-01T12:49:58;9.50;99.90
21207;DHT22;10761;48.532;8.026;2023-04-01T12:52:35;9.50;99.90
21207;DHT22;10761;48.532;8.026;2023-04-01T12:55:24;9.50;99.90
21207;DHT22;10761;48.532;8.026;2023-04-01T13:01:36;9.50;99.90
21207;DHT22;10761;48.532;8.026;2023-04-01T13:12:20;9.60;99.90
21207;DHT22;10761;48.532;8.026;2023-04-01T13:21:10;9.70;90.80
21207;DHT22;10761;48.532;8.026;2023-04-01T13:23:43;9.70;99.90
21207;DHT22;10761;48.532;8.026;2023-04-01T13:31:29;9.60;99.90
21207;DHT22;10761;48.532;8.026;2023-04-01T13:42:14;9.40;99.90
21207;DHT22;10761;48.532;8.026;2023-04-01T13:47:24;9.50;99.90
21207;DHT22;10761;48.532;8.026;2023-04-01T13:50:07;9.50;99.90
21207;DHT22;10761;48.532;8.026;2023-04-01T14:01:32;9.80;99.90
21207;DHT22;10761;48.532;8.026;2023-04-01T14:04:53;9.90;1.00
21207;DHT22;10761;48.532;8.026;2023-04-01T14:10:18;10.00;1.00
21207;DHT22;10761;48.532;8.026;2023-04-01T14:15:42;10.10;1.00
21207;DHT22;10761;48.532;8.026;2023-04-01T14:31:43;10.30;1.00
21207;DHT22;10761;48.532;8.026;2023-04-01T14:37:31;10.40;1.00
21207;DHT22;10761;48.532;8.026;2023-04-01T14:43:20;10.40;1.00
21207;DHT22;10761;48.532;8.026;2023-04-01T14:48:32;10.50;1.00
21207;DHT22;10761;48.532;8.026;2023-04-01T14:56:40;10.50;99.90
21207;DHT22;10761;48.532;8.026;2023-04-01T14:59:28;10.60;99.90
21207;DHT22;10761;48.532;8.026;2023-04-01T15:04:49;10.70;99.90
21207;DHT22;10761;48.532;8.026;2023-04-01T15:17:54;10.70;99.90
21207;DHT22;10761;48.532;8.026;2023-04-01T15:23:25;10.80;99.90
21207;DHT22;10761;48.532;8.026;2023-04-01T15:28:50;10.90;1.00
21207;DHT22;10761;48.532;8.026;2023-04-01T15:34:15;10.90;99.90
21207;DHT22;10761;48.532;8.026;2023-04-01T15:39:49;11.00;1.00
21207;DHT22;10761;48.532;8.026;2023-04-01T15:42:25;11.00;1.00
21207;DHT22;10761;48.532;8.026;2023-04-01T15:45:05;11.00;1.00
21207;DHT22;10761;48.532;8.026;2023-04-01T15:48:01;11.00;1.00
21207;DHT22;10761;48.532;8.026;2023-04-01T16:14:09;11.10;1.00
21207;DHT22;10761;48.532;8.026;2023-04-01T16:17:01;11.10;1.00
21207;DHT22;10761;48.532;8.026;2023-04-01T16:19:50;11.10;1.00
21207;DHT22;10761;48.532;8.026;2023-04-01T16:22:40;11.10;99.90
21207;DHT22;10761;48.532;8.026;2023-04-01T16:28:03;11.10;99.90
21207;DHT22;10761;48.532;8.026;2023-04-01T16:36:29;11.10;1.00
21207;DHT22;10761;48.532;8.026;2023-04-01T16:39:37;11.20;1.00
21207;DHT22;10761;48.532;8.026;2023-04-01T16:48:07;11.10;1.00
21207;DHT22;10761;48.532;8.026;2023-04-01T16:55:55;11.10;1.00
21207;DHT22;10761;48.532;8.026;2023-04-01T17:01:27;11.10;1.00
21207;DHT22;10761;48.532;8.026;2023-04-01T17:04:00;11.10;1.00
21207;DHT22;10761;48.532;8.026;2023-04-01T17:06:45;11.00;1.00
21207;DHT22;10761;48.532;8.026;2023-04-01T17:09:33;10.90;1.00
21207;DHT22;10761;48.532;8.026;2023-04-01T17:12:13;10.80;99.90
21207;DHT22;10761;48.532;8.026;2023-04-01T17:14:59;10.70;1.00
21207;DHT22;10761;48.532;8.026;2023-04-01T17:17:45;10.50;1.00
21207;DHT22;10761;48.532;8.026;2023-04-01T17:20:35;10.30;24.10
21207;DHT22;10761;48.532;8.026;2023-04-01T17:23:19;10.20;1.00
21207;DHT22;10761;48.532;8.026;2023-04-01T17:26:04;9.90;99.90
21207;DHT22;10761;48.532;8.026;2023-04-01T17:47:49;9.30;99.90
21207;DHT22;10761;48.532;8.026;2023-04-01T17:50:52;9.30;96.00
21207;DHT22;10761;48.532;8.026;2023-04-01T18:22:02;9.20;1.00
21207;DHT22;10761;48.532;8.026;2023-04-01T18:24:32;9.20;99.90
21207;DHT22;10761;48.532;8.026;2023-04-01T18:27:07;9.20;99.90
21207;DHT22;10761;48.532;8.026;2023-04-01T18:29:54;9.30;99.90
21207;DHT22;10761;48.532;8.026;2023-04-01T18:35:29;9.30;99.90
21207;DHT22;10761;48.532;8.026;2023-04-01T18:38:11;9.20;99.90
21207;DHT22;10761;48.532;8.026;2023-04-01T18:40:43;9.20;99.90
21207;DHT22;10761;48.532;8.026;2023-04-01T18:43:33;9.20;99.90
21207;DHT22;10761;48.532;8.026;2023-04-01T18:46:34;9.10;99.90
21207;DHT22;10761;48.532;8.026;2023-04-01T18:51:59;9.20;45.30
21207;DHT22;10761;48.532;8.026;2023-04-01T18:57:52;9.20;1.00
21207;DHT22;10761;48.532;8.026;2023-04-01T19:00:34;9.20;1.00
21207;DHT22;10761;48.532;8.026;2023-04-01T19:05:48;9.20;1.00
21207;DHT22;10761;48.532;8.026;2023-04-01T19:08:30;9.20;1.00
21207;DHT22;10761;48.532;8.026;2023-04-01T19:19:44;9.10;1.00
21207;DHT22;10761;48.532;8.026;2023-04-01T19:22:55;9.20;1.00
21207;DHT22;10761;48.532;8.026;2023-04-01T19:25:37;9.30;1.00
21207;DHT22;10761;48.532;8.026;2023-04-01T19:34:05;9.20;1.00
21207;DHT22;10761;48.532;8.026;2023-04-01T19:37:08;9.20;1.00
21207;DHT22;10761;48.532;8.026;2023-04-01T19:42:42;8.80;1.00
21207;DHT22;10761;48.532;8.026;2023-04-01T19:50:51;8.20;99.90
21207;DHT22;10761;48.532;8.026;2023-04-01T20:04:20;8.10;99.90
21207;DHT22;10761;48.532;8.026;2023-04-01T20:07:00;8.00;99.90
21207;DHT22;10761;48.532;8.026;2023-04-01T20:17:57;7.90;99.90
21207;DHT22;10761;48.532;8.026;2023-04-01T20:20:26;7.90;99.90
21207;DHT22;10761;48.532;8.026;2023-04-01T20:25:55;8.00;99.90
21207;DHT22;10761;48.532;8.026;2023-04-01T20:28:30;8.00;99.90
21207;DHT22;10761;48.532;8.026;2023-04-01T20:31:18;8.00;99.90
21207;DHT22;10761;48.532;8.026;2023-04-01T20:40:30;8.00;99.90
21207;DHT22;10761;48.532;8.026;2023-04-01T20:45:56;8.00;99.90
21207;DHT22;10761;48.532;8.026;2023-04-01T20:50:56;8.00;99.90
21207;DHT22;10761;48.532;8.026;2023-04-01T21:07:26;8.20;99.90
21207;DHT22;10761;48.532;8.026;2023-04-01T21:27:16;8.30;99.90
21207;DHT22;10761;48.532;8.026;2023-04-01T21:35:06;8.40;99.90
21207;DHT22;10761;48.532;8.026;2023-04-01T21:37:45;8.40;99.60
21207;DHT22;10761;48.532;8.026;2023-04-01T21:48:37;8.30;1.00
21207;DHT22;10761;48.532;8.026;2023-04-01T22:05:21;8.30;1.00
21207;DHT22;10761;48.532;8.026;2023-04-01T22:08:04;8.30;1.00
21207;DHT22;10761;48.532;8.026;2023-04-01T22:13:19;8.30;1.00
21207;DHT22;10761;48.532;8.026;2023-04-01T22:15:52;8.30;1.00
21207;DHT22;10761;48.532;8.026;2023-04-01T22:18:46;8.20;1.00
21207;DHT22;10761;48.532;8.026;2023-04-01T22:21:25;8.30;1.00
21207;DHT22;10761;48.532;8.026;2023-04-01T22:27:03;8.30;1.00
21207;DHT22;10761;48.532;8.026;2023-04-01T22:29:38;8.30;1.00
21207;DHT22;10761;48.532;8.026;2023-04-01T22:38:06;8.30;1.00
21207;DHT22;10761;48.532;8.026;2023-04-01T22:40:48;8.30;1.00
21207;DHT22;10761;48.532;8.026;2023-04-01T22:46:09;8.30;1.00
21207;DHT22;10761;48.532;8.026;2023-04-01T22:48:54;8.30;1.00
21207;DHT22;10761;48.532;8.026;2023-04-01T22:51:45;8.30;1.00
21207;DHT22;10761;48.532;8.026;2023-04-01T22:54:32;8.40;99.90
21207;DHT22;10761;48.532;8.026;2023-04-01T22:57:02;8.40;99.90
21207;DHT22;10761;48.532;8.026;2023-04-01T22:59:43;8.40;99.90
21207;DHT22;10761;48.532;8.026;2023-04-01T23:02:17;8.40;99.90
21207;DHT22;10761;48.532;8.026;2023-04-01T23:04:49;8.40;99.90
21207;DHT22;10761;48.532;8.026;2023-04-01T23:10:05;8.40;99.90
21207;DHT22;10761;48.532;8.026;2023-04-01T23:12:38;8.40;99.90
21207;DHT22;10761;48.532;8.026;2023-04-01T23:15:12;8.40;99.90
21207;DHT22;10761;48.532;8.026;2023-04-01T23:17:57;8.40;99.90
21207;DHT22;10761;48.532;8.026;2023-04-01T23:20:47;8.40;99.90
21207;DHT22;10761;48.532;8.026;2023-04-01T23:25:57;8.40;18.60
21207;DHT22;10761;48.532;8.026;2023-04-01T23:28:37;8.50;1.00
21207;DHT22;10761;48.532;8.026;2023-04-01T23:31:43;8.50;1.00
21207;DHT22;10761;48.532;8.026;2023-04-01T23:36:48;8.60;99.90
21207;DHT22;10761;48.532;8.026;2023-04-01T23:39:25;8.60;99.90
21207;DHT22;10761;48.532;8.026;2023-04-01T23:41:54;8.60;99.90
21207;DHT22;10761;48.532;8.026;2023-04-01T23:44:24;8.60;1.00
21207;DHT22;10761;48.532;8.026;2023-04-01T23:46:50;8.70;1.00
21207;DHT22;10761;48.532;8.026;2023-04-01T23:49:47;8.70;1.00
21207;DHT22;10761;48.532;8.026;2023-04-01T23:52:30;8.70;1.00
21207;DHT22;10761;48.532;8.026;2023-04-01T23:55:18;8.70;1.00
